sensor_id;sensor_type;location;lat;lon;timestamp;P1;durP1;ratioP1;P2;durP2;ratioP2
68074;SDS011;54864;52.002;5.468;2023-02-28T00:00:04;8.98;;;5.22;;
68074;SDS011;54864;52.002;5.468;2023-02-28T00:01:10;11.75;;;5.20;;
68074;SDS011;54864;52.002;5.468;2023-02-28T00:02:12;11.88;;;5.85;;
68074;SDS011;54864;52.002;5.468;2023-02-28T00:03:14;9.98;;;5.15;;
68074;SDS011;54864;52.002;5.468;2023-02-28T00:04:15;10.02;;;4.70;;
68074;SDS011;54864;52.002;5.468;2023-02-28T00:05:18;13.48;;;4.88;;
68074;SDS011;54864;52.002;5.468;2023-02-28T00:06:21;9.57;;;5.20;;
68074;SDS011;54864;52.002;5.468;2023-02-28T00:07:24;9.15;;;5.32;;
68074;SDS011;54864;52.002;5.468;2023-02-28T00:08:26;8.63;;;5.32;;
68074;SDS011;54864;52.002;5.468;2023-02-28T00:09:29;10.40;;;5.25;;
68074;SDS011;54864;52.002;5.468;2023-02-28T00:10:31;9.15;;;5.65;;
68074;SDS011;54864;52.002;5.468;2023-02-28T00:11:32;9.20;;;5.18;;
68074;SDS011;54864;52.002;5.468;2023-02-28T00:12:34;10.40;;;5.38;;
68074;SDS011;54864;52.002;5.468;2023-02-28T00:13:36;8.85;;;5.10;;
68074;SDS011;54864;52.002;5.468;2023-02-28T00:14:42;12.70;;;5.40;;
68074;SDS011;54864;52.002;5.468;2023-02-28T00:15:43;9.77;;;5.37;;
68074;SDS011;54864;52.002;5.468;2023-02-28T00:16:45;8.73;;;5.25;;
68074;SDS011;54864;52.002;5.468;2023-02-28T00:17:46;10.93;;;5.47;;
68074;SDS011;54864;52.002;5.468;2023-02-28T00:18:48;9.82;;;5.25;;
68074;SDS011;54864;52.002;5.468;2023-02-28T00:19:50;10.13;;;5.38;;
68074;SDS011;54864;52.002;5.468;2023-02-28T00:20:51;6.95;;;5.13;;
68074;SDS011;54864;52.002;5.468;2023-02-28T00:21:53;10.35;;;5.38;;
68074;SDS011;54864;52.002;5.468;2023-02-28T00:22:54;9.55;;;5.63;;
68074;SDS011;54864;52.002;5.468;2023-02-28T00:23:57;8.80;;;5.15;;
68074;SDS011;54864;52.002;5.468;2023-02-28T00:24:58;7.30;;;5.40;;
68074;SDS011;54864;52.002;5.468;2023-02-28T00:26:00;10.27;;;5.20;;
68074;SDS011;54864;52.002;5.468;2023-02-28T00:27:01;12.40;;;5.95;;
68074;SDS011;54864;52.002;5.468;2023-02-28T00:28:02;8.68;;;5.47;;
68074;SDS011;54864;52.002;5.468;2023-02-28T00:29:06;9.25;;;5.57;;
68074;SDS011;54864;52.002;5.468;2023-02-28T00:30:08;9.02;;;5.35;;
68074;SDS011;54864;52.002;5.468;2023-02-28T00:31:11;10.80;;;5.22;;
68074;SDS011;54864;52.002;5.468;2023-02-28T00:32:13;10.65;;;5.60;;
68074;SDS011;54864;52.002;5.468;2023-02-28T00:33:14;11.25;;;5.88;;
68074;SDS011;54864;52.002;5.468;2023-02-28T00:34:16;8.65;;;5.45;;
68074;SDS011;54864;52.002;5.468;2023-02-28T00:35:17;8.83;;;5.40;;
68074;SDS011;54864;52.002;5.468;2023-02-28T00:36:19;9.10;;;5.45;;
68074;SDS011;54864;52.002;5.468;2023-02-28T00:37:20;10.55;;;5.57;;
68074;SDS011;54864;52.002;5.468;2023-02-28T00:38:21;13.30;;;5.55;;
68074;SDS011;54864;52.002;5.468;2023-02-28T00:39:24;7.30;;;4.93;;
68074;SDS011;54864;52.002;5.468;2023-02-28T00:40:25;10.43;;;5.38;;
68074;SDS011;54864;52.002;5.468;2023-02-28T00:41:26;9.82;;;5.45;;
68074;SDS011;54864;52.002;5.468;2023-02-28T00:42:28;10.32;;;5.70;;
68074;SDS011;54864;52.002;5.468;2023-02-28T00:43:29;10.63;;;5.33;;
68074;SDS011;54864;52.002;5.468;2023-02-28T00:44:31;7.93;;;5.03;;
68074;SDS011;54864;52.002;5.468;2023-02-28T00:45:32;8.82;;;5.22;;
68074;SDS011;54864;52.002;5.468;2023-02-28T00:46:34;8.23;;;5.28;;
68074;SDS011;54864;52.002;5.468;2023-02-28T00:47:35;8.85;;;5.47;;
68074;SDS011;54864;52.002;5.468;2023-02-28T00:48:36;8.90;;;5.22;;
68074;SDS011;54864;52.002;5.468;2023-02-28T00:49:37;8.73;;;5.40;;
68074;SDS011;54864;52.002;5.468;2023-02-28T00:50:39;9.85;;;5.22;;
68074;SDS011;54864;52.002;5.468;2023-02-28T00:51:40;8.52;;;5.57;;
68074;SDS011;54864;52.002;5.468;2023-02-28T00:52:41;8.43;;;5.30;;
68074;SDS011;54864;52.002;5.468;2023-02-28T00:53:42;10.73;;;5.45;;
68074;SDS011;54864;52.002;5.468;2023-02-28T00:54:45;12.60;;;5.75;;
68074;SDS011;54864;52.002;5.468;2023-02-28T00:55:46;8.77;;;5.03;;
68074;SDS011;54864;52.002;5.468;2023-02-28T00:56:48;8.85;;;5.53;;
68074;SDS011;54864;52.002;5.468;2023-02-28T00:57:49;12.13;;;5.47;;
68074;SDS011;54864;52.002;5.468;2023-02-28T00:58:51;7.43;;;5.05;;
68074;SDS011;54864;52.002;5.468;2023-02-28T00:59:52;10.05;;;5.32;;
68074;SDS011;54864;52.002;5.468;2023-02-28T01:00:54;10.60;;;5.07;;
68074;SDS011;54864;52.002;5.468;2023-02-28T01:01:55;8.97;;;4.93;;
68074;SDS011;54864;52.002;5.468;2023-02-28T01:02:57;10.07;;;4.93;;
68074;SDS011;54864;52.002;5.468;2023-02-28T01:03:57;11.00;;;5.50;;
68074;SDS011;54864;52.002;5.468;2023-02-28T01:04:59;10.27;;;5.40;;
68074;SDS011;54864;52.002;5.468;2023-02-28T01:06:00;12.27;;;5.47;;
68074;SDS011;54864;52.002;5.468;2023-02-28T01:07:02;8.13;;;4.78;;
68074;SDS011;54864;52.002;5.468;2023-02-28T01:08:03;10.55;;;5.25;;
68074;SDS011;54864;52.002;5.468;2023-02-28T01:09:07;7.70;;;5.20;;
68074;SDS011;54864;52.002;5.468;2023-02-28T01:10:10;7.97;;;5.35;;
68074;SDS011;54864;52.002;5.468;2023-02-28T01:11:12;10.90;;;5.65;;
68074;SDS011;54864;52.002;5.468;2023-02-28T01:12:16;11.82;;;5.25;;
68074;SDS011;54864;52.002;5.468;2023-02-28T01:13:18;8.77;;;5.35;;
68074;SDS011;54864;52.002;5.468;2023-02-28T01:14:19;10.48;;;5.53;;
68074;SDS011;54864;52.002;5.468;2023-02-28T01:15:20;11.07;;;5.80;;
68074;SDS011;54864;52.002;5.468;2023-02-28T01:16:21;13.57;;;5.40;;
68074;SDS011;54864;52.002;5.468;2023-02-28T01:17:23;7.80;;;4.97;;
68074;SDS011;54864;52.002;5.468;2023-02-28T01:18:24;9.17;;;4.67;;
68074;SDS011;54864;52.002;5.468;2023-02-28T01:19:25;9.90;;;5.38;;
68074;SDS011;54864;52.002;5.468;2023-02-28T01:20:26;8.50;;;5.10;;
68074;SDS011;54864;52.002;5.468;2023-02-28T01:21:31;10.52;;;5.38;;
68074;SDS011;54864;52.002;5.468;2023-02-28T01:22:32;8.35;;;5.28;;
68074;SDS011;54864;52.002;5.468;2023-02-28T01:23:36;9.65;;;5.47;;
68074;SDS011;54864;52.002;5.468;2023-02-28T01:24:37;12.27;;;5.90;;
68074;SDS011;54864;52.002;5.468;2023-02-28T01:25:40;10.77;;;5.20;;
68074;SDS011;54864;52.002;5.468;2023-02-28T01:26:41;10.93;;;5.30;;
68074;SDS011;54864;52.002;5.468;2023-02-28T01:27:43;8.55;;;5.10;;
68074;SDS011;54864;52.002;5.468;2023-02-28T01:28:44;10.35;;;5.40;;
68074;SDS011;54864;52.002;5.468;2023-02-28T01:29:46;10.23;;;5.07;;
68074;SDS011;54864;52.002;5.468;2023-02-28T01:30:47;9.87;;;5.20;;
68074;SDS011;54864;52.002;5.468;2023-02-28T01:31:52;10.45;;;5.47;;
68074;SDS011;54864;52.002;5.468;2023-02-28T01:32:53;13.95;;;5.57;;
68074;SDS011;54864;52.002;5.468;2023-02-28T01:33:55;9.63;;;5.18;;
68074;SDS011;54864;52.002;5.468;2023-02-28T01:34:56;9.90;;;5.27;;
68074;SDS011;54864;52.002;5.468;2023-02-28T01:35:58;10.50;;;5.20;;
68074;SDS011;54864;52.002;5.468;2023-02-28T01:36:58;8.43;;;5.10;;
68074;SDS011;54864;52.002;5.468;2023-02-28T01:38:01;9.77;;;5.25;;
68074;SDS011;54864;52.002;5.468;2023-02-28T01:39:02;8.15;;;5.28;;
68074;SDS011;54864;52.002;5.468;2023-02-28T01:40:05;11.20;;;5.18;;
68074;SDS011;54864;52.002;5.468;2023-02-28T01:41:08;12.32;;;5.40;;
68074;SDS011;54864;52.002;5.468;2023-02-28T01:42:16;8.85;;;4.80;;
68074;SDS011;54864;52.002;5.468;2023-02-28T01:43:19;7.78;;;4.90;;
68074;SDS011;54864;52.002;5.468;2023-02-28T01:46:07;9.45;;;5.10;;
68074;SDS011;54864;52.002;5.468;2023-02-28T01:47:08;10.83;;;5.60;;
68074;SDS011;54864;52.002;5.468;2023-02-28T01:48:10;11.52;;;5.40;;
68074;SDS011;54864;52.002;5.468;2023-02-28T01:49:11;9.07;;;5.28;;
68074;SDS011;54864;52.002;5.468;2023-02-28T01:50:16;9.85;;;5.30;;
68074;SDS011;54864;52.002;5.468;2023-02-28T01:51:21;10.35;;;5.93;;
68074;SDS011;54864;52.002;5.468;2023-02-28T01:52:28;11.48;;;5.05;;
68074;SDS011;54864;52.002;5.468;2023-02-28T01:53:31;9.77;;;5.38;;
68074;SDS011;54864;52.002;5.468;2023-02-28T01:54:36;8.90;;;5.32;;
68074;SDS011;54864;52.002;5.468;2023-02-28T01:55:36;8.20;;;5.20;;
68074;SDS011;54864;52.002;5.468;2023-02-28T01:56:42;17.45;;;5.38;;
68074;SDS011;54864;52.002;5.468;2023-02-28T01:57:48;10.45;;;5.93;;
68074;SDS011;54864;52.002;5.468;2023-02-28T01:58:52;10.80;;;5.65;;
68074;SDS011;54864;52.002;5.468;2023-02-28T01:59:56;9.05;;;5.68;;
68074;SDS011;54864;52.002;5.468;2023-02-28T02:01:04;10.00;;;5.00;;
68074;SDS011;54864;52.002;5.468;2023-02-28T02:02:06;8.35;;;5.40;;
68074;SDS011;54864;52.002;5.468;2023-02-28T02:03:08;9.80;;;5.25;;
68074;SDS011;54864;52.002;5.468;2023-02-28T02:04:11;9.00;;;5.60;;
68074;SDS011;54864;52.002;5.468;2023-02-28T02:05:14;9.45;;;4.90;;
68074;SDS011;54864;52.002;5.468;2023-02-28T02:06:17;10.30;;;5.60;;
68074;SDS011;54864;52.002;5.468;2023-02-28T02:07:18;9.88;;;5.28;;
68074;SDS011;54864;52.002;5.468;2023-02-28T02:08:21;11.23;;;5.57;;
68074;SDS011;54864;52.002;5.468;2023-02-28T02:09:25;10.43;;;5.00;;
68074;SDS011;54864;52.002;5.468;2023-02-28T02:10:27;8.70;;;5.22;;
68074;SDS011;54864;52.002;5.468;2023-02-28T02:11:32;7.07;;;4.90;;
68074;SDS011;54864;52.002;5.468;2023-02-28T02:12:40;10.55;;;5.40;;
68074;SDS011;54864;52.002;5.468;2023-02-28T02:14:10;11.50;;;5.60;;
68074;SDS011;54864;52.002;5.468;2023-02-28T02:15:23;11.77;;;6.03;;
68074;SDS011;54864;52.002;5.468;2023-02-28T02:16:34;13.30;;;5.22;;
68074;SDS011;54864;52.002;5.468;2023-02-28T02:17:46;7.00;;;4.93;;
68074;SDS011;54864;52.002;5.468;2023-02-28T02:18:52;9.23;;;5.85;;
68074;SDS011;54864;52.002;5.468;2023-02-28T02:31:36;10.20;;;5.50;;
68074;SDS011;54864;52.002;5.468;2023-02-28T02:33:02;12.40;;;4.95;;
68074;SDS011;54864;52.002;5.468;2023-02-28T02:34:17;7.32;;;5.07;;
68074;SDS011;54864;52.002;5.468;2023-02-28T02:35:38;10.68;;;5.38;;
68074;SDS011;54864;52.002;5.468;2023-02-28T02:36:45;10.00;;;5.78;;
68074;SDS011;54864;52.002;5.468;2023-02-28T02:37:50;10.40;;;5.33;;
68074;SDS011;54864;52.002;5.468;2023-02-28T02:38:59;8.02;;;5.15;;
68074;SDS011;54864;52.002;5.468;2023-02-28T02:40:09;9.40;;;5.28;;
68074;SDS011;54864;52.002;5.468;2023-02-28T02:41:15;9.65;;;5.55;;
68074;SDS011;54864;52.002;5.468;2023-02-28T02:42:23;8.40;;;5.38;;
68074;SDS011;54864;52.002;5.468;2023-02-28T02:43:30;12.20;;;5.72;;
68074;SDS011;54864;52.002;5.468;2023-02-28T02:44:36;9.75;;;5.38;;
68074;SDS011;54864;52.002;5.468;2023-02-28T02:45:45;10.45;;;5.25;;
68074;SDS011;54864;52.002;5.468;2023-02-28T02:46:50;9.05;;;4.65;;
68074;SDS011;54864;52.002;5.468;2023-02-28T02:47:54;10.05;;;5.93;;
68074;SDS011;54864;52.002;5.468;2023-02-28T02:49:00;8.93;;;5.22;;
68074;SDS011;54864;52.002;5.468;2023-02-28T02:50:08;10.93;;;5.30;;
68074;SDS011;54864;52.002;5.468;2023-02-28T02:51:15;9.65;;;5.57;;
68074;SDS011;54864;52.002;5.468;2023-02-28T02:52:22;10.48;;;5.68;;
68074;SDS011;54864;52.002;5.468;2023-02-28T02:53:32;10.70;;;5.57;;
68074;SDS011;54864;52.002;5.468;2023-02-28T02:54:40;10.35;;;5.75;;
68074;SDS011;54864;52.002;5.468;2023-02-28T02:55:44;8.27;;;5.38;;
68074;SDS011;54864;52.002;5.468;2023-02-28T02:56:53;11.95;;;5.60;;
68074;SDS011;54864;52.002;5.468;2023-02-28T02:57:54;8.20;;;5.18;;
68074;SDS011;54864;52.002;5.468;2023-02-28T02:58:59;8.93;;;5.60;;
68074;SDS011;54864;52.002;5.468;2023-02-28T03:00:03;10.95;;;5.70;;
68074;SDS011;54864;52.002;5.468;2023-02-28T03:01:10;8.38;;;5.55;;
68074;SDS011;54864;52.002;5.468;2023-02-28T03:02:14;14.65;;;6.30;;
68074;SDS011;54864;52.002;5.468;2023-02-28T03:03:18;10.05;;;5.60;;
68074;SDS011;54864;52.002;5.468;2023-02-28T03:04:30;9.25;;;5.20;;
68074;SDS011;54864;52.002;5.468;2023-02-28T03:05:41;9.02;;;5.38;;
68074;SDS011;54864;52.002;5.468;2023-02-28T03:06:44;8.88;;;4.88;;
68074;SDS011;54864;52.002;5.468;2023-02-28T03:07:46;8.70;;;5.40;;
68074;SDS011;54864;52.002;5.468;2023-02-28T03:08:47;7.93;;;5.20;;
68074;SDS011;54864;52.002;5.468;2023-02-28T03:09:50;7.03;;;4.93;;
68074;SDS011;54864;52.002;5.468;2023-02-28T03:10:55;8.05;;;5.28;;
68074;SDS011;54864;52.002;5.468;2023-02-28T03:11:58;10.50;;;5.93;;
68074;SDS011;54864;52.002;5.468;2023-02-28T03:13:03;9.20;;;5.50;;
68074;SDS011;54864;52.002;5.468;2023-02-28T03:14:19;10.20;;;5.50;;
68074;SDS011;54864;52.002;5.468;2023-02-28T03:15:31;7.72;;;4.88;;
68074;SDS011;54864;52.002;5.468;2023-02-28T03:16:45;8.25;;;5.20;;
68074;SDS011;54864;52.002;5.468;2023-02-28T03:18:01;8.50;;;5.10;;
68074;SDS011;54864;52.002;5.468;2023-02-28T03:20:48;8.82;;;5.60;;
68074;SDS011;54864;52.002;5.468;2023-02-28T03:22:00;10.13;;;5.75;;
68074;SDS011;54864;52.002;5.468;2023-02-28T03:23:13;10.70;;;5.47;;
68074;SDS011;54864;52.002;5.468;2023-02-28T03:24:18;8.80;;;5.80;;
68074;SDS011;54864;52.002;5.468;2023-02-28T03:25:28;8.98;;;5.75;;
68074;SDS011;54864;52.002;5.468;2023-02-28T03:26:34;8.88;;;4.85;;
68074;SDS011;54864;52.002;5.468;2023-02-28T03:27:41;7.22;;;5.13;;
68074;SDS011;54864;52.002;5.468;2023-02-28T03:28:53;9.32;;;5.60;;
68074;SDS011;54864;52.002;5.468;2023-02-28T03:30:03;10.15;;;5.57;;
68074;SDS011;54864;52.002;5.468;2023-02-28T03:31:07;15.48;;;5.38;;
68074;SDS011;54864;52.002;5.468;2023-02-28T03:32:18;10.13;;;5.57;;
68074;SDS011;54864;52.002;5.468;2023-02-28T03:33:26;9.07;;;5.20;;
68074;SDS011;54864;52.002;5.468;2023-02-28T03:34:33;10.02;;;5.60;;
68074;SDS011;54864;52.002;5.468;2023-02-28T03:35:37;6.97;;;5.25;;
68074;SDS011;54864;52.002;5.468;2023-02-28T03:36:46;11.98;;;5.20;;
68074;SDS011;54864;52.002;5.468;2023-02-28T03:37:52;11.40;;;5.70;;
68074;SDS011;54864;52.002;5.468;2023-02-28T03:39:00;10.38;;;5.70;;
68074;SDS011;54864;52.002;5.468;2023-02-28T03:40:06;9.30;;;5.40;;
68074;SDS011;54864;52.002;5.468;2023-02-28T03:41:13;8.98;;;5.88;;
68074;SDS011;54864;52.002;5.468;2023-02-28T03:42:18;9.38;;;6.07;;
68074;SDS011;54864;52.002;5.468;2023-02-28T03:43:23;7.25;;;5.35;;
68074;SDS011;54864;52.002;5.468;2023-02-28T03:44:28;9.07;;;5.57;;
68074;SDS011;54864;52.002;5.468;2023-02-28T03:45:34;9.15;;;5.30;;
68074;SDS011;54864;52.002;5.468;2023-02-28T03:48:35;9.68;;;5.78;;
68074;SDS011;54864;52.002;5.468;2023-02-28T03:49:44;11.00;;;5.90;;
68074;SDS011;54864;52.002;5.468;2023-02-28T03:50:51;11.15;;;5.70;;
68074;SDS011;54864;52.002;5.468;2023-02-28T03:51:57;8.45;;;5.55;;
68074;SDS011;54864;52.002;5.468;2023-02-28T03:53:02;10.02;;;6.18;;
68074;SDS011;54864;52.002;5.468;2023-02-28T03:54:09;13.55;;;6.53;;
68074;SDS011;54864;52.002;5.468;2023-02-28T03:55:16;10.50;;;6.05;;
68074;SDS011;54864;52.002;5.468;2023-02-28T03:56:18;12.45;;;5.95;;
68074;SDS011;54864;52.002;5.468;2023-02-28T03:57:23;10.18;;;6.05;;
68074;SDS011;54864;52.002;5.468;2023-02-28T03:58:35;8.75;;;5.85;;
68074;SDS011;54864;52.002;5.468;2023-02-28T03:59:41;10.13;;;5.50;;
68074;SDS011;54864;52.002;5.468;2023-02-28T04:00:46;8.48;;;5.72;;
68074;SDS011;54864;52.002;5.468;2023-02-28T04:01:52;10.63;;;5.82;;
68074;SDS011;54864;52.002;5.468;2023-02-28T04:02:55;11.27;;;5.57;;
68074;SDS011;54864;52.002;5.468;2023-02-28T04:03:56;10.80;;;5.25;;
68074;SDS011;54864;52.002;5.468;2023-02-28T04:05:07;8.70;;;4.93;;
68074;SDS011;54864;52.002;5.468;2023-02-28T04:06:13;8.60;;;5.70;;
68074;SDS011;54864;52.002;5.468;2023-02-28T04:07:18;10.73;;;5.50;;
68074;SDS011;54864;52.002;5.468;2023-02-28T04:08:19;10.35;;;5.13;;
68074;SDS011;54864;52.002;5.468;2023-02-28T04:09:21;7.57;;;5.10;;
68074;SDS011;54864;52.002;5.468;2023-02-28T04:10:23;9.45;;;5.38;;
68074;SDS011;54864;52.002;5.468;2023-02-28T04:11:27;8.75;;;5.25;;
68074;SDS011;54864;52.002;5.468;2023-02-28T04:12:32;11.35;;;6.05;;
68074;SDS011;54864;52.002;5.468;2023-02-28T04:13:34;8.48;;;5.18;;
68074;SDS011;54864;52.002;5.468;2023-02-28T04:14:34;7.95;;;5.43;;
68074;SDS011;54864;52.002;5.468;2023-02-28T04:15:36;10.30;;;5.60;;
68074;SDS011;54864;52.002;5.468;2023-02-28T04:16:38;10.75;;;5.38;;
68074;SDS011;54864;52.002;5.468;2023-02-28T04:17:41;8.70;;;4.90;;
68074;SDS011;54864;52.002;5.468;2023-02-28T04:18:42;10.23;;;5.35;;
68074;SDS011;54864;52.002;5.468;2023-02-28T04:19:44;7.32;;;4.78;;
68074;SDS011;54864;52.002;5.468;2023-02-28T04:20:44;9.20;;;5.13;;
68074;SDS011;54864;52.002;5.468;2023-02-28T04:21:47;6.53;;;5.15;;
68074;SDS011;54864;52.002;5.468;2023-02-28T04:22:52;8.40;;;5.10;;
68074;SDS011;54864;52.002;5.468;2023-02-28T04:23:54;8.68;;;4.97;;
68074;SDS011;54864;52.002;5.468;2023-02-28T04:24:55;9.60;;;5.00;;
68074;SDS011;54864;52.002;5.468;2023-02-28T04:25:56;7.53;;;5.32;;
68074;SDS011;54864;52.002;5.468;2023-02-28T04:26:58;6.82;;;5.10;;
68074;SDS011;54864;52.002;5.468;2023-02-28T04:28:00;8.13;;;5.20;;
68074;SDS011;54864;52.002;5.468;2023-02-28T04:29:02;8.57;;;5.15;;
68074;SDS011;54864;52.002;5.468;2023-02-28T04:30:05;8.18;;;4.88;;
68074;SDS011;54864;52.002;5.468;2023-02-28T04:31:06;8.43;;;4.97;;
68074;SDS011;54864;52.002;5.468;2023-02-28T04:32:08;7.47;;;4.68;;
68074;SDS011;54864;52.002;5.468;2023-02-28T04:33:09;6.25;;;4.80;;
68074;SDS011;54864;52.002;5.468;2023-02-28T04:34:11;9.27;;;4.90;;
68074;SDS011;54864;52.002;5.468;2023-02-28T04:35:12;7.90;;;4.50;;
68074;SDS011;54864;52.002;5.468;2023-02-28T04:36:14;9.10;;;4.53;;
68074;SDS011;54864;52.002;5.468;2023-02-28T04:37:17;11.32;;;4.80;;
68074;SDS011;54864;52.002;5.468;2023-02-28T04:38:20;6.83;;;4.57;;
68074;SDS011;54864;52.002;5.468;2023-02-28T04:39:21;7.88;;;4.22;;
68074;SDS011;54864;52.002;5.468;2023-02-28T04:40:24;6.47;;;4.53;;
68074;SDS011;54864;52.002;5.468;2023-02-28T04:41:25;6.53;;;4.80;;
68074;SDS011;54864;52.002;5.468;2023-02-28T04:42:27;7.38;;;4.40;;
68074;SDS011;54864;52.002;5.468;2023-02-28T04:43:35;7.10;;;4.20;;
68074;SDS011;54864;52.002;5.468;2023-02-28T04:44:37;8.85;;;4.75;;
68074;SDS011;54864;52.002;5.468;2023-02-28T04:45:37;7.65;;;4.30;;
68074;SDS011;54864;52.002;5.468;2023-02-28T04:46:39;6.65;;;4.55;;
68074;SDS011;54864;52.002;5.468;2023-02-28T04:47:40;6.18;;;4.30;;
68074;SDS011;54864;52.002;5.468;2023-02-28T04:48:42;7.55;;;4.55;;
68074;SDS011;54864;52.002;5.468;2023-02-28T04:49:43;7.45;;;4.50;;
68074;SDS011;54864;52.002;5.468;2023-02-28T04:50:45;8.43;;;5.05;;
68074;SDS011;54864;52.002;5.468;2023-02-28T04:51:49;7.63;;;4.47;;
68074;SDS011;54864;52.002;5.468;2023-02-28T04:52:50;7.53;;;4.50;;
68074;SDS011;54864;52.002;5.468;2023-02-28T04:53:52;7.60;;;4.37;;
68074;SDS011;54864;52.002;5.468;2023-02-28T04:54:54;6.28;;;3.50;;
68074;SDS011;54864;52.002;5.468;2023-02-28T04:55:55;9.87;;;4.10;;
68074;SDS011;54864;52.002;5.468;2023-02-28T04:56:57;4.93;;;3.75;;
68074;SDS011;54864;52.002;5.468;2023-02-28T04:57:58;7.40;;;4.30;;
68074;SDS011;54864;52.002;5.468;2023-02-28T04:58:59;7.10;;;4.18;;
68074;SDS011;54864;52.002;5.468;2023-02-28T05:00:00;5.80;;;4.15;;
68074;SDS011;54864;52.002;5.468;2023-02-28T05:01:06;5.88;;;3.92;;
68074;SDS011;54864;52.002;5.468;2023-02-28T05:02:16;7.18;;;4.20;;
68074;SDS011;54864;52.002;5.468;2023-02-28T05:03:18;6.90;;;4.32;;
68074;SDS011;54864;52.002;5.468;2023-02-28T05:04:20;5.47;;;3.92;;
68074;SDS011;54864;52.002;5.468;2023-02-28T05:05:22;8.02;;;4.20;;
68074;SDS011;54864;52.002;5.468;2023-02-28T05:06:23;7.50;;;4.30;;
68074;SDS011;54864;52.002;5.468;2023-02-28T05:07:27;7.47;;;4.47;;
68074;SDS011;54864;52.002;5.468;2023-02-28T05:08:27;5.80;;;4.00;;
68074;SDS011;54864;52.002;5.468;2023-02-28T05:09:31;6.15;;;3.90;;
68074;SDS011;54864;52.002;5.468;2023-02-28T05:10:33;5.18;;;4.00;;
68074;SDS011;54864;52.002;5.468;2023-02-28T05:11:35;7.95;;;4.25;;
68074;SDS011;54864;52.002;5.468;2023-02-28T05:12:36;5.88;;;3.88;;
68074;SDS011;54864;52.002;5.468;2023-02-28T05:13:38;10.45;;;4.03;;
68074;SDS011;54864;52.002;5.468;2023-02-28T05:14:39;5.95;;;4.07;;
68074;SDS011;54864;52.002;5.468;2023-02-28T05:15:44;6.63;;;4.30;;
68074;SDS011;54864;52.002;5.468;2023-02-28T05:16:45;7.97;;;4.40;;
68074;SDS011;54864;52.002;5.468;2023-02-28T05:17:46;6.22;;;4.45;;
68074;SDS011;54864;52.002;5.468;2023-02-28T05:18:47;5.97;;;4.25;;
68074;SDS011;54864;52.002;5.468;2023-02-28T05:19:49;5.90;;;4.22;;
68074;SDS011;54864;52.002;5.468;2023-02-28T05:20:50;5.90;;;4.30;;
68074;SDS011;54864;52.002;5.468;2023-02-28T05:21:52;9.48;;;4.38;;
68074;SDS011;54864;52.002;5.468;2023-02-28T05:22:54;6.73;;;4.40;;
68074;SDS011;54864;52.002;5.468;2023-02-28T05:23:59;8.85;;;4.32;;
68074;SDS011;54864;52.002;5.468;2023-02-28T05:25:02;7.13;;;4.53;;
68074;SDS011;54864;52.002;5.468;2023-02-28T05:26:04;7.30;;;4.10;;
68074;SDS011;54864;52.002;5.468;2023-02-28T05:27:05;9.93;;;4.93;;
68074;SDS011;54864;52.002;5.468;2023-02-28T05:28:07;7.82;;;4.78;;
68074;SDS011;54864;52.002;5.468;2023-02-28T05:29:08;7.20;;;4.78;;
68074;SDS011;54864;52.002;5.468;2023-02-28T05:30:10;9.13;;;4.50;;
68074;SDS011;54864;52.002;5.468;2023-02-28T05:31:11;5.93;;;4.25;;
68074;SDS011;54864;52.002;5.468;2023-02-28T05:32:14;5.95;;;4.47;;
68074;SDS011;54864;52.002;5.468;2023-02-28T05:33:15;8.88;;;4.32;;
68074;SDS011;54864;52.002;5.468;2023-02-28T05:34:17;8.73;;;4.75;;
68074;SDS011;54864;52.002;5.468;2023-02-28T05:35:18;7.70;;;4.60;;
68074;SDS011;54864;52.002;5.468;2023-02-28T05:36:19;8.13;;;4.82;;
68074;SDS011;54864;52.002;5.468;2023-02-28T05:37:21;7.85;;;4.50;;
68074;SDS011;54864;52.002;5.468;2023-02-28T05:38:22;6.75;;;4.65;;
68074;SDS011;54864;52.002;5.468;2023-02-28T05:39:24;6.38;;;4.25;;
68074;SDS011;54864;52.002;5.468;2023-02-28T05:40:26;6.03;;;4.25;;
68074;SDS011;54864;52.002;5.468;2023-02-28T05:41:28;5.97;;;4.30;;
68074;SDS011;54864;52.002;5.468;2023-02-28T05:42:29;8.43;;;4.28;;
68074;SDS011;54864;52.002;5.468;2023-02-28T05:43:31;8.80;;;4.40;;
68074;SDS011;54864;52.002;5.468;2023-02-28T05:44:32;7.27;;;4.50;;
68074;SDS011;54864;52.002;5.468;2023-02-28T05:45:33;5.43;;;3.97;;
68074;SDS011;54864;52.002;5.468;2023-02-28T05:46:34;5.50;;;4.15;;
68074;SDS011;54864;52.002;5.468;2023-02-28T05:47:36;7.70;;;4.38;;
68074;SDS011;54864;52.002;5.468;2023-02-28T05:48:37;7.00;;;4.35;;
68074;SDS011;54864;52.002;5.468;2023-02-28T05:49:42;6.15;;;4.20;;
68074;SDS011;54864;52.002;5.468;2023-02-28T05:50:44;7.75;;;3.83;;
68074;SDS011;54864;52.002;5.468;2023-02-28T05:51:46;4.88;;;4.03;;
68074;SDS011;54864;52.002;5.468;2023-02-28T05:52:48;5.40;;;3.92;;
68074;SDS011;54864;52.002;5.468;2023-02-28T05:53:50;9.07;;;4.22;;
68074;SDS011;54864;52.002;5.468;2023-02-28T05:54:51;6.57;;;4.30;;
68074;SDS011;54864;52.002;5.468;2023-02-28T05:55:53;7.73;;;4.63;;
68074;SDS011;54864;52.002;5.468;2023-02-28T05:56:55;7.50;;;4.50;;
68074;SDS011;54864;52.002;5.468;2023-02-28T05:57:56;6.57;;;4.70;;
68074;SDS011;54864;52.002;5.468;2023-02-28T05:58:58;7.05;;;4.85;;
68074;SDS011;54864;52.002;5.468;2023-02-28T05:59:58;6.50;;;4.65;;
68074;SDS011;54864;52.002;5.468;2023-02-28T06:01:01;7.53;;;4.35;;
68074;SDS011;54864;52.002;5.468;2023-02-28T06:02:21;5.80;;;4.40;;
68074;SDS011;54864;52.002;5.468;2023-02-28T06:03:23;6.70;;;4.43;;
68074;SDS011;54864;52.002;5.468;2023-02-28T06:04:25;8.20;;;4.63;;
68074;SDS011;54864;52.002;5.468;2023-02-28T06:05:26;8.85;;;4.88;;
68074;SDS011;54864;52.002;5.468;2023-02-28T06:06:28;7.18;;;4.53;;
68074;SDS011;54864;52.002;5.468;2023-02-28T06:07:30;10.02;;;4.45;;
68074;SDS011;54864;52.002;5.468;2023-02-28T06:08:31;7.72;;;4.00;;
68074;SDS011;54864;52.002;5.468;2023-02-28T06:09:33;7.07;;;4.90;;
68074;SDS011;54864;52.002;5.468;2023-02-28T06:10:34;6.53;;;4.53;;
68074;SDS011;54864;52.002;5.468;2023-02-28T06:11:37;7.33;;;4.57;;
68074;SDS011;54864;52.002;5.468;2023-02-28T06:12:38;5.18;;;4.10;;
68074;SDS011;54864;52.002;5.468;2023-02-28T06:13:41;6.95;;;4.28;;
68074;SDS011;54864;52.002;5.468;2023-02-28T06:14:42;8.33;;;4.93;;
68074;SDS011;54864;52.002;5.468;2023-02-28T06:15:44;6.97;;;4.45;;
68074;SDS011;54864;52.002;5.468;2023-02-28T06:16:45;7.30;;;4.40;;
68074;SDS011;54864;52.002;5.468;2023-02-28T06:17:47;7.53;;;4.30;;
68074;SDS011;54864;52.002;5.468;2023-02-28T06:18:48;6.85;;;4.15;;
68074;SDS011;54864;52.002;5.468;2023-02-28T06:19:50;6.88;;;4.90;;
68074;SDS011;54864;52.002;5.468;2023-02-28T06:20:52;7.18;;;4.05;;
68074;SDS011;54864;52.002;5.468;2023-02-28T06:21:54;5.72;;;4.22;;
68074;SDS011;54864;52.002;5.468;2023-02-28T06:22:56;6.93;;;3.97;;
68074;SDS011;54864;52.002;5.468;2023-02-28T06:23:59;5.20;;;3.88;;
68074;SDS011;54864;52.002;5.468;2023-02-28T06:25:00;7.50;;;4.05;;
68074;SDS011;54864;52.002;5.468;2023-02-28T06:26:02;5.75;;;3.70;;
68074;SDS011;54864;52.002;5.468;2023-02-28T06:27:04;7.55;;;4.05;;
68074;SDS011;54864;52.002;5.468;2023-02-28T06:28:06;7.35;;;3.92;;
68074;SDS011;54864;52.002;5.468;2023-02-28T06:29:07;6.87;;;3.97;;
68074;SDS011;54864;52.002;5.468;2023-02-28T06:30:10;5.68;;;3.88;;
68074;SDS011;54864;52.002;5.468;2023-02-28T06:31:14;6.18;;;4.22;;
68074;SDS011;54864;52.002;5.468;2023-02-28T06:32:16;7.07;;;4.30;;
68074;SDS011;54864;52.002;5.468;2023-02-28T06:33:17;5.15;;;3.92;;
68074;SDS011;54864;52.002;5.468;2023-02-28T06:34:18;5.72;;;4.47;;
68074;SDS011;54864;52.002;5.468;2023-02-28T06:35:20;6.63;;;4.72;;
68074;SDS011;54864;52.002;5.468;2023-02-28T06:36:21;8.33;;;4.90;;
68074;SDS011;54864;52.002;5.468;2023-02-28T06:37:22;9.30;;;5.55;;